sensor_id;sensor_type;location;lat;lon;timestamp;P1;durP1;ratioP1;P2;durP2;ratioP2
60078;SDS011;45951;45.824;8.824;2022-10-16T00:00:49;21.10;;;15.70;;
60078;SDS011;45951;45.824;8.824;2022-10-16T00:06:49;22.17;;;16.45;;
60078;SDS011;45951;45.824;8.824;2022-10-16T00:12:49;23.83;;;15.18;;
60078;SDS011;45951;45.824;8.824;2022-10-16T00:18:50;21.23;;;16.05;;
60078;SDS011;45951;45.824;8.824;2022-10-16T00:24:50;24.90;;;15.45;;
60078;SDS011;45951;45.824;8.824;2022-10-16T00:30:51;22.63;;;15.85;;
60078;SDS011;45951;45.824;8.824;2022-10-16T00:36:51;22.13;;;16.13;;
60078;SDS011;45951;45.824;8.824;2022-10-16T00:42:51;20.23;;;15.27;;
60078;SDS011;45951;45.824;8.824;2022-10-16T00:48:55;24.55;;;15.73;;
60078;SDS011;45951;45.824;8.824;2022-10-16T00:54:59;25.33;;;15.50;;
60078;SDS011;45951;45.824;8.824;2022-10-16T01:01:00;24.10;;;16.40;;
60078;SDS011;45951;45.824;8.824;2022-10-16T01:13:16;20.65;;;15.38;;
60078;SDS011;45951;45.824;8.824;2022-10-16T01:19:23;23.35;;;15.93;;
60078;SDS011;45951;45.824;8.824;2022-10-16T01:32:15;21.13;;;15.05;;
60078;SDS011;45951;45.824;8.824;2022-10-16T01:44:22;18.25;;;13.20;;
60078;SDS011;45951;45.824;8.824;2022-10-16T01:50:28;18.05;;;12.55;;
60078;SDS011;45951;45.824;8.824;2022-10-16T01:56:28;20.92;;;14.13;;
60078;SDS011;45951;45.824;8.824;2022-10-16T02:02:29;18.67;;;13.25;;
60078;SDS011;45951;45.824;8.824;2022-10-16T02:08:30;19.23;;;12.35;;
60078;SDS011;45951;45.824;8.824;2022-10-16T02:14:31;18.25;;;13.30;;
60078;SDS011;45951;45.824;8.824;2022-10-16T02:21:33;18.85;;;13.05;;
60078;SDS011;45951;45.824;8.824;2022-10-16T02:33:28;19.98;;;14.23;;
60078;SDS011;45951;45.824;8.824;2022-10-16T02:39:29;20.63;;;13.80;;
60078;SDS011;45951;45.824;8.824;2022-10-16T02:45:30;19.48;;;13.27;;
60078;SDS011;45951;45.824;8.824;2022-10-16T02:51:30;18.45;;;13.93;;
60078;SDS011;45951;45.824;8.824;2022-10-16T02:57:31;18.92;;;13.45;;
60078;SDS011;45951;45.824;8.824;2022-10-16T03:03:31;20.63;;;14.70;;
60078;SDS011;45951;45.824;8.824;2022-10-16T03:09:32;20.38;;;14.45;;
60078;SDS011;45951;45.824;8.824;2022-10-16T03:15:32;19.10;;;13.77;;
60078;SDS011;45951;45.824;8.824;2022-10-16T03:21:32;20.17;;;13.80;;
60078;SDS011;45951;45.824;8.824;2022-10-16T03:27:33;20.83;;;14.50;;
60078;SDS011;45951;45.824;8.824;2022-10-16T03:33:33;21.65;;;15.35;;
60078;SDS011;45951;45.824;8.824;2022-10-16T03:39:33;21.58;;;14.98;;
60078;SDS011;45951;45.824;8.824;2022-10-16T03:45:34;20.38;;;14.15;;
60078;SDS011;45951;45.824;8.824;2022-10-16T03:51:34;20.60;;;15.32;;
60078;SDS011;45951;45.824;8.824;2022-10-16T03:57:34;18.38;;;13.85;;
60078;SDS011;45951;45.824;8.824;2022-10-16T04:03:35;21.23;;;14.10;;
60078;SDS011;45951;45.824;8.824;2022-10-16T04:09:35;18.17;;;14.77;;
60078;SDS011;45951;45.824;8.824;2022-10-16T04:15:35;22.43;;;13.77;;
60078;SDS011;45951;45.824;8.824;2022-10-16T04:21:36;19.20;;;13.98;;
60078;SDS011;45951;45.824;8.824;2022-10-16T04:27:37;19.52;;;13.57;;
60078;SDS011;45951;45.824;8.824;2022-10-16T04:33:37;19.88;;;13.90;;
60078;SDS011;45951;45.824;8.824;2022-10-16T04:39:38;20.42;;;14.00;;
60078;SDS011;45951;45.824;8.824;2022-10-16T04:45:38;22.50;;;14.40;;
60078;SDS011;45951;45.824;8.824;2022-10-16T04:51:38;20.10;;;14.13;;
60078;SDS011;45951;45.824;8.824;2022-10-16T04:57:39;20.33;;;14.45;;
60078;SDS011;45951;45.824;8.824;2022-10-16T05:03:40;19.55;;;14.00;;
60078;SDS011;45951;45.824;8.824;2022-10-16T05:09:40;21.37;;;14.17;;
60078;SDS011;45951;45.824;8.824;2022-10-16T05:15:41;18.60;;;13.00;;
60078;SDS011;45951;45.824;8.824;2022-10-16T05:21:41;19.77;;;14.35;;
60078;SDS011;45951;45.824;8.824;2022-10-16T05:27:41;18.27;;;13.82;;
60078;SDS011;45951;45.824;8.824;2022-10-16T05:33:42;18.07;;;13.97;;
60078;SDS011;45951;45.824;8.824;2022-10-16T05:39:43;20.73;;;13.60;;
60078;SDS011;45951;45.824;8.824;2022-10-16T05:45:44;18.58;;;14.18;;
60078;SDS011;45951;45.824;8.824;2022-10-16T05:51:44;20.65;;;14.82;;
60078;SDS011;45951;45.824;8.824;2022-10-16T05:57:45;17.50;;;13.23;;
60078;SDS011;45951;45.824;8.824;2022-10-16T06:03:45;21.67;;;14.48;;
60078;SDS011;45951;45.824;8.824;2022-10-16T06:09:52;19.58;;;13.95;;
60078;SDS011;45951;45.824;8.824;2022-10-16T06:15:52;20.25;;;14.82;;
60078;SDS011;45951;45.824;8.824;2022-10-16T06:21:52;18.58;;;13.38;;
60078;SDS011;45951;45.824;8.824;2022-10-16T06:27:53;21.00;;;14.13;;
60078;SDS011;45951;45.824;8.824;2022-10-16T06:33:53;20.38;;;14.38;;
60078;SDS011;45951;45.824;8.824;2022-10-16T06:39:54;19.02;;;14.50;;
60078;SDS011;45951;45.824;8.824;2022-10-16T06:45:55;20.75;;;15.27;;
60078;SDS011;45951;45.824;8.824;2022-10-16T06:51:56;20.27;;;14.15;;
60078;SDS011;45951;45.824;8.824;2022-10-16T06:57:56;18.50;;;14.02;;
60078;SDS011;45951;45.824;8.824;2022-10-16T07:03:56;20.48;;;14.70;;
60078;SDS011;45951;45.824;8.824;2022-10-16T07:09:57;22.33;;;15.40;;
60078;SDS011;45951;45.824;8.824;2022-10-16T07:15:57;22.30;;;14.80;;
60078;SDS011;45951;45.824;8.824;2022-10-16T07:21:58;21.48;;;14.30;;
60078;SDS011;45951;45.824;8.824;2022-10-16T07:27:59;18.83;;;13.75;;
60078;SDS011;45951;45.824;8.824;2022-10-16T07:33:59;20.23;;;14.68;;
60078;SDS011;45951;45.824;8.824;2022-10-16T07:40:00;20.48;;;14.70;;
60078;SDS011;45951;45.824;8.824;2022-10-16T07:46:00;18.52;;;14.20;;
60078;SDS011;45951;45.824;8.824;2022-10-16T07:52:00;19.33;;;14.68;;
60078;SDS011;45951;45.824;8.824;2022-10-16T07:58:01;20.90;;;14.97;;
60078;SDS011;45951;45.824;8.824;2022-10-16T08:04:01;20.60;;;16.00;;
60078;SDS011;45951;45.824;8.824;2022-10-16T08:10:02;21.63;;;15.67;;
60078;SDS011;45951;45.824;8.824;2022-10-16T08:16:03;19.35;;;14.20;;
60078;SDS011;45951;45.824;8.824;2022-10-16T08:22:07;19.45;;;14.45;;
60078;SDS011;45951;45.824;8.824;2022-10-16T08:28:08;21.50;;;14.57;;
60078;SDS011;45951;45.824;8.824;2022-10-16T08:34:09;19.00;;;14.02;;
60078;SDS011;45951;45.824;8.824;2022-10-16T08:40:16;19.25;;;13.98;;
60078;SDS011;45951;45.824;8.824;2022-10-16T08:52:29;18.90;;;14.18;;
60078;SDS011;45951;45.824;8.824;2022-10-16T08:58:31;18.13;;;14.07;;
60078;SDS011;45951;45.824;8.824;2022-10-16T09:04:39;19.10;;;14.43;;
60078;SDS011;45951;45.824;8.824;2022-10-16T09:10:57;20.40;;;16.10;;
60078;SDS011;45951;45.824;8.824;2022-10-16T09:17:01;18.27;;;14.57;;
60078;SDS011;45951;45.824;8.824;2022-10-16T09:23:21;19.23;;;13.85;;
60078;SDS011;45951;45.824;8.824;2022-10-16T09:29:25;19.98;;;15.23;;
60078;SDS011;45951;45.824;8.824;2022-10-16T09:35:27;19.47;;;14.40;;
60078;SDS011;45951;45.824;8.824;2022-10-16T09:41:33;18.77;;;14.18;;
60078;SDS011;45951;45.824;8.824;2022-10-16T09:47:35;22.02;;;16.05;;
60078;SDS011;45951;45.824;8.824;2022-10-16T09:53:44;18.30;;;14.98;;
60078;SDS011;45951;45.824;8.824;2022-10-16T09:59:46;22.15;;;16.15;;
60078;SDS011;45951;45.824;8.824;2022-10-16T10:05:48;19.63;;;15.35;;
60078;SDS011;45951;45.824;8.824;2022-10-16T10:12:00;19.67;;;15.45;;
60078;SDS011;45951;45.824;8.824;2022-10-16T10:18:02;20.05;;;16.10;;
60078;SDS011;45951;45.824;8.824;2022-10-16T10:24:03;21.35;;;17.13;;
60078;SDS011;45951;45.824;8.824;2022-10-16T10:48:54;21.20;;;15.77;;
60078;SDS011;45951;45.824;8.824;2022-10-16T11:01:45;18.88;;;15.82;;
60078;SDS011;45951;45.824;8.824;2022-10-16T11:07:52;20.30;;;15.88;;
60078;SDS011;45951;45.824;8.824;2022-10-16T11:20:32;19.33;;;15.07;;
60078;SDS011;45951;45.824;8.824;2022-10-16T11:26:34;18.63;;;16.20;;
60078;SDS011;45951;45.824;8.824;2022-10-16T11:32:45;22.88;;;15.30;;
60078;SDS011;45951;45.824;8.824;2022-10-16T11:51:51;20.40;;;15.52;;
60078;SDS011;45951;45.824;8.824;2022-10-16T11:57:51;21.70;;;15.80;;
60078;SDS011;45951;45.824;8.824;2022-10-16T12:10:09;22.15;;;14.75;;
60078;SDS011;45951;45.824;8.824;2022-10-16T12:16:21;21.48;;;15.88;;
60078;SDS011;45951;45.824;8.824;2022-10-16T12:22:22;30.77;;;20.83;;
60078;SDS011;45951;45.824;8.824;2022-10-16T12:28:26;30.98;;;19.95;;
60078;SDS011;45951;45.824;8.824;2022-10-16T12:34:29;29.17;;;19.42;;
60078;SDS011;45951;45.824;8.824;2022-10-16T12:40:34;28.42;;;18.98;;
60078;SDS011;45951;45.824;8.824;2022-10-16T12:46:39;28.08;;;18.13;;
60078;SDS011;45951;45.824;8.824;2022-10-16T12:52:40;25.33;;;17.45;;
60078;SDS011;45951;45.824;8.824;2022-10-16T12:58:56;28.33;;;19.80;;
60078;SDS011;45951;45.824;8.824;2022-10-16T13:05:13;29.23;;;20.92;;
60078;SDS011;45951;45.824;8.824;2022-10-16T13:23:54;32.13;;;23.13;;
60078;SDS011;45951;45.824;8.824;2022-10-16T13:30:18;31.75;;;22.17;;
60078;SDS011;45951;45.824;8.824;2022-10-16T13:36:21;34.08;;;23.20;;
60078;SDS011;45951;45.824;8.824;2022-10-16T13:42:27;33.67;;;22.63;;
60078;SDS011;45951;45.824;8.824;2022-10-16T13:48:28;28.75;;;20.48;;
60078;SDS011;45951;45.824;8.824;2022-10-16T13:54:29;30.45;;;19.92;;
60078;SDS011;45951;45.824;8.824;2022-10-16T14:00:30;31.52;;;20.98;;
60078;SDS011;45951;45.824;8.824;2022-10-16T14:06:31;33.15;;;21.48;;
60078;SDS011;45951;45.824;8.824;2022-10-16T14:12:32;37.42;;;25.10;;
60078;SDS011;45951;45.824;8.824;2022-10-16T14:18:33;36.47;;;24.70;;
60078;SDS011;45951;45.824;8.824;2022-10-16T14:24:34;35.25;;;24.35;;
60078;SDS011;45951;45.824;8.824;2022-10-16T14:30:35;37.67;;;24.08;;
60078;SDS011;45951;45.824;8.824;2022-10-16T14:36:36;35.67;;;25.02;;
60078;SDS011;45951;45.824;8.824;2022-10-16T14:42:42;35.13;;;24.02;;
60078;SDS011;45951;45.824;8.824;2022-10-16T14:48:44;35.60;;;23.33;;
60078;SDS011;45951;45.824;8.824;2022-10-16T14:54:49;35.20;;;23.88;;
60078;SDS011;45951;45.824;8.824;2022-10-16T15:00:55;32.85;;;23.27;;
60078;SDS011;45951;45.824;8.824;2022-10-16T15:06:55;31.80;;;23.15;;
60078;SDS011;45951;45.824;8.824;2022-10-16T15:12:56;38.00;;;27.17;;
60078;SDS011;45951;45.824;8.824;2022-10-16T15:18:56;34.60;;;21.17;;
60078;SDS011;45951;45.824;8.824;2022-10-16T15:24:57;31.52;;;21.35;;
60078;SDS011;45951;45.824;8.824;2022-10-16T15:30:57;32.03;;;21.95;;
60078;SDS011;45951;45.824;8.824;2022-10-16T15:36:57;32.75;;;21.48;;
60078;SDS011;45951;45.824;8.824;2022-10-16T15:42:59;32.33;;;22.13;;
60078;SDS011;45951;45.824;8.824;2022-10-16T15:48:59;36.10;;;21.50;;
60078;SDS011;45951;45.824;8.824;2022-10-16T15:55:00;30.48;;;21.92;;
60078;SDS011;45951;45.824;8.824;2022-10-16T16:01:01;28.97;;;20.13;;
60078;SDS011;45951;45.824;8.824;2022-10-16T16:07:01;29.67;;;22.00;;
60078;SDS011;45951;45.824;8.824;2022-10-16T16:13:02;31.83;;;20.65;;
60078;SDS011;45951;45.824;8.824;2022-10-16T16:19:03;32.53;;;20.67;;
60078;SDS011;45951;45.824;8.824;2022-10-16T16:25:07;33.92;;;22.92;;
60078;SDS011;45951;45.824;8.824;2022-10-16T16:31:07;31.50;;;20.17;;
60078;SDS011;45951;45.824;8.824;2022-10-16T16:37:08;28.37;;;20.83;;
60078;SDS011;45951;45.824;8.824;2022-10-16T16:43:08;33.90;;;21.45;;
60078;SDS011;45951;45.824;8.824;2022-10-16T16:49:09;34.70;;;22.52;;
60078;SDS011;45951;45.824;8.824;2022-10-16T16:55:11;32.97;;;23.02;;
60078;SDS011;45951;45.824;8.824;2022-10-16T17:01:11;36.95;;;23.05;;
60078;SDS011;45951;45.824;8.824;2022-10-16T17:07:12;33.88;;;22.70;;
60078;SDS011;45951;45.824;8.824;2022-10-16T17:13:12;34.63;;;22.13;;
60078;SDS011;45951;45.824;8.824;2022-10-16T17:19:14;32.45;;;22.85;;
60078;SDS011;45951;45.824;8.824;2022-10-16T17:25:15;33.25;;;21.05;;
60078;SDS011;45951;45.824;8.824;2022-10-16T17:31:17;27.60;;;19.35;;
60078;SDS011;45951;45.824;8.824;2022-10-16T17:37:19;30.27;;;22.23;;
60078;SDS011;45951;45.824;8.824;2022-10-16T17:43:20;32.20;;;21.80;;
60078;SDS011;45951;45.824;8.824;2022-10-16T17:49:20;28.52;;;21.23;;
60078;SDS011;45951;45.824;8.824;2022-10-16T17:55:21;29.00;;;20.80;;
60078;SDS011;45951;45.824;8.824;2022-10-16T18:01:22;31.83;;;21.57;;
60078;SDS011;45951;45.824;8.824;2022-10-16T18:07:25;30.20;;;22.08;;
60078;SDS011;45951;45.824;8.824;2022-10-16T18:13:26;32.47;;;23.73;;
60078;SDS011;45951;45.824;8.824;2022-10-16T18:19:26;33.25;;;23.73;;
60078;SDS011;45951;45.824;8.824;2022-10-16T18:25:27;35.70;;;24.05;;
60078;SDS011;45951;45.824;8.824;2022-10-16T18:31:27;41.90;;;26.33;;
60078;SDS011;45951;45.824;8.824;2022-10-16T18:37:27;39.77;;;25.67;;
60078;SDS011;45951;45.824;8.824;2022-10-16T18:43:28;41.83;;;26.85;;
60078;SDS011;45951;45.824;8.824;2022-10-16T18:49:28;39.42;;;26.63;;
60078;SDS011;45951;45.824;8.824;2022-10-16T18:55:29;43.88;;;27.42;;
60078;SDS011;45951;45.824;8.824;2022-10-16T19:01:30;45.77;;;28.30;;
60078;SDS011;45951;45.824;8.824;2022-10-16T19:07:33;43.15;;;28.38;;
60078;SDS011;45951;45.824;8.824;2022-10-16T19:13:33;40.28;;;27.95;;
60078;SDS011;45951;45.824;8.824;2022-10-16T19:19:34;48.00;;;30.00;;
60078;SDS011;45951;45.824;8.824;2022-10-16T19:25:37;46.13;;;30.38;;
60078;SDS011;45951;45.824;8.824;2022-10-16T19:31:39;51.05;;;31.52;;
60078;SDS011;45951;45.824;8.824;2022-10-16T19:37:40;46.67;;;29.15;;
60078;SDS011;45951;45.824;8.824;2022-10-16T19:43:40;50.75;;;31.40;;
60078;SDS011;45951;45.824;8.824;2022-10-16T19:49:41;51.55;;;30.50;;
60078;SDS011;45951;45.824;8.824;2022-10-16T19:55:41;49.78;;;31.20;;
60078;SDS011;45951;45.824;8.824;2022-10-16T20:01:41;48.78;;;30.45;;
60078;SDS011;45951;45.824;8.824;2022-10-16T20:07:42;45.30;;;30.58;;
60078;SDS011;45951;45.824;8.824;2022-10-16T20:13:42;46.78;;;30.10;;
60078;SDS011;45951;45.824;8.824;2022-10-16T20:19:43;48.07;;;29.20;;
60078;SDS011;45951;45.824;8.824;2022-10-16T20:25:44;53.40;;;31.35;;
60078;SDS011;45951;45.824;8.824;2022-10-16T20:31:44;48.63;;;28.80;;
60078;SDS011;45951;45.824;8.824;2022-10-16T20:37:45;43.85;;;28.00;;
60078;SDS011;45951;45.824;8.824;2022-10-16T20:43:48;47.38;;;29.75;;
60078;SDS011;45951;45.824;8.824;2022-10-16T20:49:51;48.17;;;29.45;;
60078;SDS011;45951;45.824;8.824;2022-10-16T20:55:51;45.58;;;29.35;;
60078;SDS011;45951;45.824;8.824;2022-10-16T21:01:52;44.13;;;27.38;;
60078;SDS011;45951;45.824;8.824;2022-10-16T21:07:52;49.47;;;29.42;;
60078;SDS011;45951;45.824;8.824;2022-10-16T21:13:53;43.63;;;27.38;;
60078;SDS011;45951;45.824;8.824;2022-10-16T21:19:55;41.92;;;25.88;;
60078;SDS011;45951;45.824;8.824;2022-10-16T21:25:55;45.15;;;27.13;;
60078;SDS011;45951;45.824;8.824;2022-10-16T21:31:55;46.35;;;27.92;;
60078;SDS011;45951;45.824;8.824;2022-10-16T21:37:56;41.37;;;26.07;;
60078;SDS011;45951;45.824;8.824;2022-10-16T21:43:57;40.00;;;25.08;;
60078;SDS011;45951;45.824;8.824;2022-10-16T21:49:57;39.58;;;24.70;;
60078;SDS011;45951;45.824;8.824;2022-10-16T21:55:58;38.60;;;24.23;;
60078;SDS011;45951;45.824;8.824;2022-10-16T22:01:58;39.90;;;24.38;;
60078;SDS011;45951;45.824;8.824;2022-10-16T22:08:01;41.22;;;24.13;;
60078;SDS011;45951;45.824;8.824;2022-10-16T22:14:06;39.73;;;23.87;;
60078;SDS011;45951;45.824;8.824;2022-10-16T22:20:07;35.20;;;22.77;;
60078;SDS011;45951;45.824;8.824;2022-10-16T22:26:09;35.63;;;22.27;;
60078;SDS011;45951;45.824;8.824;2022-10-16T22:32:10;35.15;;;23.08;;
60078;SDS011;45951;45.824;8.824;2022-10-16T22:38:11;35.13;;;21.88;;
60078;SDS011;45951;45.824;8.824;2022-10-16T22:44:11;31.73;;;21.40;;
60078;SDS011;45951;45.824;8.824;2022-10-16T22:50:12;35.80;;;22.48;;
60078;SDS011;45951;45.824;8.824;2022-10-16T22:56:13;34.10;;;21.33;;
60078;SDS011;45951;45.824;8.824;2022-10-16T23:02:14;36.78;;;22.77;;
60078;SDS011;45951;45.824;8.824;2022-10-16T23:08:15;33.63;;;21.83;;
60078;SDS011;45951;45.824;8.824;2022-10-16T23:14:19;30.42;;;20.48;;
60078;SDS011;45951;45.824;8.824;2022-10-16T23:20:20;30.38;;;19.55;;
60078;SDS011;45951;45.824;8.824;2022-10-16T23:26:21;27.98;;;18.02;;
60078;SDS011;45951;45.824;8.824;2022-10-16T23:32:23;27.08;;;17.38;;
60078;SDS011;45951;45.824;8.824;2022-10-16T23:38:23;23.88;;;16.13;;
60078;SDS011;45951;45.824;8.824;2022-10-16T23:44:24;24.00;;;16.23;;
60078;SDS011;45951;45.824;8.824;2022-10-16T23:50:24;22.85;;;15.65;;
60078;SDS011;45951;45.824;8.824;2022-10-16T23:56:25;20.30;;;14.60;;
